<?xml version="1.0" encoding="UTF-8" standalone="no" ?>
<gpx xmlns="http://www.topografix.com/GPX/1/1" xmlns:xsi="http://www.w3.org/2001/XMLSchema-instance" xsi:schemaLocation="http://www.topografix.com/GPX/1/1 http://www.topografix.com/GPX/1/1/gpx.xsd" version="1.1" creator="VisuGPX - https://www.visugpx.com">
  <metadata>
    <name>2ème partie 4000 marches ++++++</name>
  </metadata>
  <trk>
    <name><![CDATA[2ème partie 4000 marches ++++++_1]]></name>
    <trkseg>
      <trkpt lat="44.12099" lon="3.58176">
        <ele>1540</ele>
        <time>2022-03-28T19:39:03Z</time>
      </trkpt>
      <trkpt lat="44.12098" lon="3.58148">
        <ele>1539</ele>
        <time>2022-03-28T19:39:13Z</time>
      </trkpt>
      <trkpt lat="44.12113" lon="3.58064">
        <ele>1541</ele>
        <time>2022-03-28T19:39:44Z</time>
      </trkpt>
      <trkpt lat="44.12122" lon="3.5799">
        <ele>1545</ele>
        <time>2022-03-28T19:40:11Z</time>
      </trkpt>
      <trkpt lat="44.12116" lon="3.57892">
        <ele>1552</ele>
        <time>2022-03-28T19:40:46Z</time>
      </trkpt>
      <trkpt lat="44.12111" lon="3.5789">
        <ele>1552</ele>
        <time>2022-03-28T19:40:49Z</time>
      </trkpt>
      <trkpt lat="44.12109" lon="3.57885">
        <ele>1552</ele>
        <time>2022-03-28T19:40:51Z</time>
      </trkpt>
      <trkpt lat="44.121" lon="3.57856">
        <ele>1553</ele>
        <time>2022-03-28T19:41:02Z</time>
      </trkpt>
      <trkpt lat="44.12087" lon="3.57843">
        <ele>1553</ele>
        <time>2022-03-28T19:41:10Z</time>
      </trkpt>
      <trkpt lat="44.12072" lon="3.57833">
        <ele>1550</ele>
        <time>2022-03-28T19:41:19Z</time>
      </trkpt>
      <trkpt lat="44.12068" lon="3.57819">
        <ele>1548</ele>
        <time>2022-03-28T19:41:24Z</time>
      </trkpt>
      <trkpt lat="44.12063" lon="3.57763">
        <ele>1546</ele>
        <time>2022-03-28T19:41:44Z</time>
      </trkpt>
      <trkpt lat="44.12066" lon="3.57705">
        <ele>1545</ele>
        <time>2022-03-28T19:42:05Z</time>
      </trkpt>
      <trkpt lat="44.12053" lon="3.57523">
        <ele>1541</ele>
        <time>2022-03-28T19:43:11Z</time>
      </trkpt>
      <trkpt lat="44.12047" lon="3.57488">
        <ele>1540</ele>
        <time>2022-03-28T19:43:24Z</time>
      </trkpt>
      <trkpt lat="44.12033" lon="3.57445">
        <ele>1537</ele>
        <time>2022-03-28T19:43:41Z</time>
      </trkpt>
      <trkpt lat="44.12012" lon="3.57417">
        <ele>1532</ele>
        <time>2022-03-28T19:43:56Z</time>
      </trkpt>
      <trkpt lat="44.1199" lon="3.57401">
        <ele>1528</ele>
        <time>2022-03-28T19:44:08Z</time>
      </trkpt>
      <trkpt lat="44.11948" lon="3.57353">
        <ele>1521</ele>
        <time>2022-03-28T19:44:35Z</time>
      </trkpt>
      <trkpt lat="44.1193" lon="3.57316">
        <ele>1519</ele>
        <time>2022-03-28T19:44:51Z</time>
      </trkpt>
      <trkpt lat="44.11914" lon="3.57265">
        <ele>1516</ele>
        <time>2022-03-28T19:45:11Z</time>
      </trkpt>
      <trkpt lat="44.11912" lon="3.57213">
        <ele>1513</ele>
        <time>2022-03-28T19:45:30Z</time>
      </trkpt>
      <trkpt lat="44.11925" lon="3.57121">
        <ele>1506</ele>
        <time>2022-03-28T19:46:04Z</time>
      </trkpt>
      <trkpt lat="44.1195" lon="3.57026">
        <ele>1498</ele>
        <time>2022-03-28T19:46:40Z</time>
      </trkpt>
      <trkpt lat="44.11959" lon="3.57">
        <ele>1496</ele>
        <time>2022-03-28T19:46:50Z</time>
      </trkpt>
      <trkpt lat="44.11982" lon="3.56957">
        <ele>1491</ele>
        <time>2022-03-28T19:47:10Z</time>
      </trkpt>
      <trkpt lat="44.12013" lon="3.56916">
        <ele>1487</ele>
        <time>2022-03-28T19:47:31Z</time>
      </trkpt>
      <trkpt lat="44.12062" lon="3.56883">
        <ele>1493</ele>
        <time>2022-03-28T19:47:58Z</time>
      </trkpt>
      <trkpt lat="44.12065" lon="3.56875">
        <ele>1492</ele>
        <time>2022-03-28T19:48:01Z</time>
      </trkpt>
      <trkpt lat="44.12062" lon="3.56864">
        <ele>1490</ele>
        <time>2022-03-28T19:48:06Z</time>
      </trkpt>
      <trkpt lat="44.12048" lon="3.56842">
        <ele>1482</ele>
        <time>2022-03-28T19:48:16Z</time>
      </trkpt>
      <trkpt lat="44.12034" lon="3.56808">
        <ele>1474</ele>
        <time>2022-03-28T19:48:30Z</time>
      </trkpt>
      <trkpt lat="44.1203" lon="3.56792">
        <ele>1471</ele>
        <time>2022-03-28T19:48:36Z</time>
      </trkpt>
      <trkpt lat="44.1203" lon="3.56756">
        <ele>1467</ele>
        <time>2022-03-28T19:48:49Z</time>
      </trkpt>
      <trkpt lat="44.12036" lon="3.5668">
        <ele>1462</ele>
        <time>2022-03-28T19:49:17Z</time>
      </trkpt>
      <trkpt lat="44.12035" lon="3.56664">
        <ele>1460</ele>
        <time>2022-03-28T19:49:23Z</time>
      </trkpt>
      <trkpt lat="44.12036" lon="3.56602">
        <ele>1454</ele>
        <time>2022-03-28T19:49:45Z</time>
      </trkpt>
      <trkpt lat="44.1204" lon="3.5655">
        <ele>1449</ele>
        <time>2022-03-28T19:50:04Z</time>
      </trkpt>
      <trkpt lat="44.12036" lon="3.56498">
        <ele>1443</ele>
        <time>2022-03-28T19:50:22Z</time>
      </trkpt>
      <trkpt lat="44.12042" lon="3.56485">
        <ele>1443</ele>
        <time>2022-03-28T19:50:28Z</time>
      </trkpt>
      <trkpt lat="44.12049" lon="3.56474">
        <ele>1444</ele>
        <time>2022-03-28T19:50:33Z</time>
      </trkpt>
      <trkpt lat="44.12068" lon="3.56454">
        <ele>1447</ele>
        <time>2022-03-28T19:50:45Z</time>
      </trkpt>
      <trkpt lat="44.12073" lon="3.56446">
        <ele>1448</ele>
        <time>2022-03-28T19:50:49Z</time>
      </trkpt>
      <trkpt lat="44.12076" lon="3.56435">
        <ele>1448</ele>
        <time>2022-03-28T19:50:53Z</time>
      </trkpt>
      <trkpt lat="44.12076" lon="3.56422">
        <ele>1447</ele>
        <time>2022-03-28T19:50:58Z</time>
      </trkpt>
      <trkpt lat="44.12073" lon="3.56412">
        <ele>1447</ele>
        <time>2022-03-28T19:51:02Z</time>
      </trkpt>
      <trkpt lat="44.12068" lon="3.564">
        <ele>1447</ele>
        <time>2022-03-28T19:51:07Z</time>
      </trkpt>
      <trkpt lat="44.12055" lon="3.56382">
        <ele>1446</ele>
        <time>2022-03-28T19:51:16Z</time>
      </trkpt>
      <trkpt lat="44.12034" lon="3.56359">
        <ele>1444</ele>
        <time>2022-03-28T19:51:29Z</time>
      </trkpt>
      <trkpt lat="44.11981" lon="3.56327">
        <ele>1435</ele>
        <time>2022-03-28T19:51:58Z</time>
      </trkpt>
      <trkpt lat="44.11964" lon="3.56307">
        <ele>1432</ele>
        <time>2022-03-28T19:52:09Z</time>
      </trkpt>
      <trkpt lat="44.11953" lon="3.56284">
        <ele>1432</ele>
        <time>2022-03-28T19:52:19Z</time>
      </trkpt>
      <trkpt lat="44.11946" lon="3.56259">
        <ele>1432</ele>
        <time>2022-03-28T19:52:29Z</time>
      </trkpt>
      <trkpt lat="44.11939" lon="3.56221">
        <ele>1434</ele>
        <time>2022-03-28T19:52:43Z</time>
      </trkpt>
      <trkpt lat="44.11933" lon="3.56204">
        <ele>1435</ele>
        <time>2022-03-28T19:52:50Z</time>
      </trkpt>
      <trkpt lat="44.11923" lon="3.56192">
        <ele>1435</ele>
        <time>2022-03-28T19:52:56Z</time>
      </trkpt>
      <trkpt lat="44.11893" lon="3.56182">
        <ele>1431</ele>
        <time>2022-03-28T19:53:12Z</time>
      </trkpt>
      <trkpt lat="44.11876" lon="3.56173">
        <ele>1430</ele>
        <time>2022-03-28T19:53:21Z</time>
      </trkpt>
      <trkpt lat="44.11836" lon="3.56143">
        <ele>1426</ele>
        <time>2022-03-28T19:53:44Z</time>
      </trkpt>
      <trkpt lat="44.11825" lon="3.5613">
        <ele>1425</ele>
        <time>2022-03-28T19:53:51Z</time>
      </trkpt>
      <trkpt lat="44.11815" lon="3.56115">
        <ele>1424</ele>
        <time>2022-03-28T19:53:58Z</time>
      </trkpt>
      <trkpt lat="44.11807" lon="3.56099">
        <ele>1423</ele>
        <time>2022-03-28T19:54:05Z</time>
      </trkpt>
      <trkpt lat="44.11801" lon="3.56082">
        <ele>1423</ele>
        <time>2022-03-28T19:54:12Z</time>
      </trkpt>
      <trkpt lat="44.11797" lon="3.56062">
        <ele>1423</ele>
        <time>2022-03-28T19:54:19Z</time>
      </trkpt>
      <trkpt lat="44.11793" lon="3.56024">
        <ele>1422</ele>
        <time>2022-03-28T19:54:33Z</time>
      </trkpt>
      <trkpt lat="44.11792" lon="3.55971">
        <ele>1421</ele>
        <time>2022-03-28T19:54:52Z</time>
      </trkpt>
      <trkpt lat="44.11797" lon="3.55968">
        <ele>1422</ele>
        <time>2022-03-28T19:54:55Z</time>
      </trkpt>
      <trkpt lat="44.11797" lon="3.55933">
        <ele>1422</ele>
        <time>2022-03-28T19:55:08Z</time>
      </trkpt>
      <trkpt lat="44.11799" lon="3.55904">
        <ele>1421</ele>
        <time>2022-03-28T19:55:18Z</time>
      </trkpt>
      <trkpt lat="44.11789" lon="3.55871">
        <ele>1419</ele>
        <time>2022-03-28T19:55:31Z</time>
      </trkpt>
      <trkpt lat="44.11787" lon="3.55844">
        <ele>1418</ele>
        <time>2022-03-28T19:55:41Z</time>
      </trkpt>
      <trkpt lat="44.11767" lon="3.55793">
        <ele>1415</ele>
        <time>2022-03-28T19:56:02Z</time>
      </trkpt>
      <trkpt lat="44.11767" lon="3.55766">
        <ele>1416</ele>
        <time>2022-03-28T19:56:11Z</time>
      </trkpt>
      <trkpt lat="44.11752" lon="3.5569">
        <ele>1417</ele>
        <time>2022-03-28T19:56:40Z</time>
      </trkpt>
      <trkpt lat="44.11739" lon="3.5567">
        <ele>1416</ele>
        <time>2022-03-28T19:56:49Z</time>
      </trkpt>
      <trkpt lat="44.11726" lon="3.55658">
        <ele>1415</ele>
        <time>2022-03-28T19:56:57Z</time>
      </trkpt>
      <trkpt lat="44.11713" lon="3.5563">
        <ele>1415</ele>
        <time>2022-03-28T19:57:09Z</time>
      </trkpt>
      <trkpt lat="44.11707" lon="3.55596">
        <ele>1415</ele>
        <time>2022-03-28T19:57:22Z</time>
      </trkpt>
      <trkpt lat="44.11706" lon="3.55581">
        <ele>1416</ele>
        <time>2022-03-28T19:57:27Z</time>
      </trkpt>
      <trkpt lat="44.1171" lon="3.55559">
        <ele>1416</ele>
        <time>2022-03-28T19:57:35Z</time>
      </trkpt>
      <trkpt lat="44.11716" lon="3.55544">
        <ele>1416</ele>
        <time>2022-03-28T19:57:41Z</time>
      </trkpt>
      <trkpt lat="44.11717" lon="3.55531">
        <ele>1416</ele>
        <time>2022-03-28T19:57:46Z</time>
      </trkpt>
      <trkpt lat="44.11712" lon="3.55516">
        <ele>1416</ele>
        <time>2022-03-28T19:57:52Z</time>
      </trkpt>
      <trkpt lat="44.11718" lon="3.55502">
        <ele>1416</ele>
        <time>2022-03-28T19:57:58Z</time>
      </trkpt>
      <trkpt lat="44.11723" lon="3.55487">
        <ele>1416</ele>
        <time>2022-03-28T19:58:04Z</time>
      </trkpt>
      <trkpt lat="44.11731" lon="3.55471">
        <ele>1415</ele>
        <time>2022-03-28T19:58:11Z</time>
      </trkpt>
      <trkpt lat="44.1174" lon="3.5546">
        <ele>1415</ele>
        <time>2022-03-28T19:58:17Z</time>
      </trkpt>
      <trkpt lat="44.11682" lon="3.55308">
        <ele>1412</ele>
        <time>2022-03-28T19:59:19Z</time>
      </trkpt>
      <trkpt lat="44.11677" lon="3.55288">
        <ele>1412</ele>
        <time>2022-03-28T19:59:26Z</time>
      </trkpt>
      <trkpt lat="44.11673" lon="3.55267">
        <ele>1413</ele>
        <time>2022-03-28T19:59:34Z</time>
      </trkpt>
      <trkpt lat="44.11662" lon="3.55164">
        <ele>1414</ele>
        <time>2022-03-28T20:00:12Z</time>
      </trkpt>
      <trkpt lat="44.11655" lon="3.55145">
        <ele>1413</ele>
        <time>2022-03-28T20:00:19Z</time>
      </trkpt>
      <trkpt lat="44.11656" lon="3.55088">
        <ele>1412</ele>
        <time>2022-03-28T20:00:40Z</time>
      </trkpt>
      <trkpt lat="44.11653" lon="3.55044">
        <ele>1411</ele>
        <time>2022-03-28T20:00:56Z</time>
      </trkpt>
      <trkpt lat="44.11648" lon="3.55007">
        <ele>1410</ele>
        <time>2022-03-28T20:01:09Z</time>
      </trkpt>
      <trkpt lat="44.11641" lon="3.54984">
        <ele>1410</ele>
        <time>2022-03-28T20:01:18Z</time>
      </trkpt>
      <trkpt lat="44.11634" lon="3.5497">
        <ele>1410</ele>
        <time>2022-03-28T20:01:24Z</time>
      </trkpt>
      <trkpt lat="44.1161" lon="3.5495">
        <ele>1408</ele>
        <time>2022-03-28T20:01:38Z</time>
      </trkpt>
      <trkpt lat="44.11567" lon="3.54877">
        <ele>1410</ele>
        <time>2022-03-28T20:02:12Z</time>
      </trkpt>
      <trkpt lat="44.11544" lon="3.54842">
        <ele>1412</ele>
        <time>2022-03-28T20:02:29Z</time>
      </trkpt>
      <trkpt lat="44.11514" lon="3.54806">
        <ele>1411</ele>
        <time>2022-03-28T20:02:49Z</time>
      </trkpt>
      <trkpt lat="44.11481" lon="3.54756">
        <ele>1413</ele>
        <time>2022-03-28T20:03:13Z</time>
      </trkpt>
      <trkpt lat="44.11456" lon="3.54657">
        <ele>1414</ele>
        <time>2022-03-28T20:03:51Z</time>
      </trkpt>
      <trkpt lat="44.11448" lon="3.54616">
        <ele>1414</ele>
        <time>2022-03-28T20:04:06Z</time>
      </trkpt>
      <trkpt lat="44.11444" lon="3.54606">
        <ele>1414</ele>
        <time>2022-03-28T20:04:10Z</time>
      </trkpt>
      <trkpt lat="44.11439" lon="3.54601">
        <ele>1413</ele>
        <time>2022-03-28T20:04:14Z</time>
      </trkpt>
      <trkpt lat="44.11424" lon="3.54594">
        <ele>1412</ele>
        <time>2022-03-28T20:04:21Z</time>
      </trkpt>
      <trkpt lat="44.11407" lon="3.54581">
        <ele>1411</ele>
        <time>2022-03-28T20:04:31Z</time>
      </trkpt>
      <trkpt lat="44.11382" lon="3.5457">
        <ele>1412</ele>
        <time>2022-03-28T20:04:44Z</time>
      </trkpt>
      <trkpt lat="44.11349" lon="3.5455">
        <ele>1413</ele>
        <time>2022-03-28T20:05:02Z</time>
      </trkpt>
      <trkpt lat="44.11327" lon="3.54528">
        <ele>1416</ele>
        <time>2022-03-28T20:05:16Z</time>
      </trkpt>
      <trkpt lat="44.1132" lon="3.54526">
        <ele>1416</ele>
        <time>2022-03-28T20:05:19Z</time>
      </trkpt>
      <trkpt lat="44.11289" lon="3.54546">
        <ele>1412</ele>
        <time>2022-03-28T20:05:36Z</time>
      </trkpt>
      <trkpt lat="44.11258" lon="3.54556">
        <ele>1409</ele>
        <time>2022-03-28T20:05:52Z</time>
      </trkpt>
      <trkpt lat="44.11226" lon="3.54559">
        <ele>1408</ele>
        <time>2022-03-28T20:06:08Z</time>
      </trkpt>
      <trkpt lat="44.11133" lon="3.54542">
        <ele>1407</ele>
        <time>2022-03-28T20:06:55Z</time>
      </trkpt>
      <trkpt lat="44.11089" lon="3.54526">
        <ele>1406</ele>
        <time>2022-03-28T20:07:18Z</time>
      </trkpt>
      <trkpt lat="44.11068" lon="3.54513">
        <ele>1405</ele>
        <time>2022-03-28T20:07:30Z</time>
      </trkpt>
      <trkpt lat="44.11035" lon="3.54471">
        <ele>1402</ele>
        <time>2022-03-28T20:07:52Z</time>
      </trkpt>
      <trkpt lat="44.10977" lon="3.54383">
        <ele>1395</ele>
        <time>2022-03-28T20:08:35Z</time>
      </trkpt>
      <trkpt lat="44.10961" lon="3.54364">
        <ele>1393</ele>
        <time>2022-03-28T20:08:45Z</time>
      </trkpt>
      <trkpt lat="44.10922" lon="3.54344">
        <ele>1388</ele>
        <time>2022-03-28T20:09:06Z</time>
      </trkpt>
      <trkpt lat="44.10909" lon="3.54344">
        <ele>1387</ele>
        <time>2022-03-28T20:09:13Z</time>
      </trkpt>
      <trkpt lat="44.10889" lon="3.54348">
        <ele>1386</ele>
        <time>2022-03-28T20:09:23Z</time>
      </trkpt>
      <trkpt lat="44.10873" lon="3.54329">
        <ele>1385</ele>
        <time>2022-03-28T20:09:33Z</time>
      </trkpt>
      <trkpt lat="44.10864" lon="3.54324">
        <ele>1384</ele>
        <time>2022-03-28T20:09:38Z</time>
      </trkpt>
      <trkpt lat="44.10852" lon="3.54323">
        <ele>1383</ele>
        <time>2022-03-28T20:09:44Z</time>
      </trkpt>
      <trkpt lat="44.10801" lon="3.54302">
        <ele>1379</ele>
        <time>2022-03-28T20:10:11Z</time>
      </trkpt>
      <trkpt lat="44.10768" lon="3.54272">
        <ele>1374</ele>
        <time>2022-03-28T20:10:31Z</time>
      </trkpt>
      <trkpt lat="44.10731" lon="3.54254">
        <ele>1370</ele>
        <time>2022-03-28T20:10:50Z</time>
      </trkpt>
      <trkpt lat="44.10665" lon="3.54228">
        <ele>1364</ele>
        <time>2022-03-28T20:11:25Z</time>
      </trkpt>
      <trkpt lat="44.10528" lon="3.54197">
        <ele>1347</ele>
        <time>2022-03-28T20:12:34Z</time>
      </trkpt>
      <trkpt lat="44.10486" lon="3.54179">
        <ele>1337</ele>
        <time>2022-03-28T20:12:56Z</time>
      </trkpt>
      <trkpt lat="44.10411" lon="3.5415">
        <ele>1317</ele>
        <time>2022-03-28T20:13:35Z</time>
      </trkpt>
      <trkpt lat="44.10365" lon="3.54129">
        <ele>1307</ele>
        <time>2022-03-28T20:13:59Z</time>
      </trkpt>
      <trkpt lat="44.10333" lon="3.54109">
        <ele>1303</ele>
        <time>2022-03-28T20:14:17Z</time>
      </trkpt>
      <trkpt lat="44.10342" lon="3.54104">
        <ele>1304</ele>
        <time>2022-03-28T20:14:22Z</time>
      </trkpt>
      <trkpt lat="44.10333" lon="3.54109">
        <ele>1303</ele>
        <time>2022-03-28T20:14:26Z</time>
      </trkpt>
      <trkpt lat="44.10303" lon="3.54103">
        <ele>1307</ele>
        <time>2022-03-28T20:14:42Z</time>
      </trkpt>
      <trkpt lat="44.10277" lon="3.54107">
        <ele>1310</ele>
        <time>2022-03-28T20:14:55Z</time>
      </trkpt>
      <trkpt lat="44.10264" lon="3.54106">
        <ele>1311</ele>
        <time>2022-03-28T20:15:01Z</time>
      </trkpt>
      <trkpt lat="44.10239" lon="3.54109">
        <ele>1315</ele>
        <time>2022-03-28T20:15:14Z</time>
      </trkpt>
      <trkpt lat="44.10196" lon="3.54108">
        <ele>1325</ele>
        <time>2022-03-28T20:15:35Z</time>
      </trkpt>
      <trkpt lat="44.1018" lon="3.54104">
        <ele>1329</ele>
        <time>2022-03-28T20:15:43Z</time>
      </trkpt>
      <trkpt lat="44.10166" lon="3.54104">
        <ele>1332</ele>
        <time>2022-03-28T20:15:50Z</time>
      </trkpt>
      <trkpt lat="44.10156" lon="3.54106">
        <ele>1332</ele>
        <time>2022-03-28T20:15:55Z</time>
      </trkpt>
      <trkpt lat="44.10098" lon="3.54129">
        <ele>1334</ele>
        <time>2022-03-28T20:16:26Z</time>
      </trkpt>
      <trkpt lat="44.10081" lon="3.5414">
        <ele>1335</ele>
        <time>2022-03-28T20:16:35Z</time>
      </trkpt>
      <trkpt lat="44.10051" lon="3.54147">
        <ele>1336</ele>
        <time>2022-03-28T20:16:50Z</time>
      </trkpt>
      <trkpt lat="44.10002" lon="3.5415">
        <ele>1337</ele>
        <time>2022-03-28T20:17:15Z</time>
      </trkpt>
      <trkpt lat="44.09974" lon="3.54145">
        <ele>1338</ele>
        <time>2022-03-28T20:17:29Z</time>
      </trkpt>
      <trkpt lat="44.09943" lon="3.54134">
        <ele>1338</ele>
        <time>2022-03-28T20:17:45Z</time>
      </trkpt>
      <trkpt lat="44.09862" lon="3.54092">
        <ele>1335</ele>
        <time>2022-03-28T20:18:28Z</time>
      </trkpt>
      <trkpt lat="44.09787" lon="3.54042">
        <ele>1333</ele>
        <time>2022-03-28T20:19:10Z</time>
      </trkpt>
      <trkpt lat="44.09756" lon="3.54015">
        <ele>1333</ele>
        <time>2022-03-28T20:19:28Z</time>
      </trkpt>
      <trkpt lat="44.0974" lon="3.54004">
        <ele>1333</ele>
        <time>2022-03-28T20:19:37Z</time>
      </trkpt>
      <trkpt lat="44.09683" lon="3.53976">
        <ele>1332</ele>
        <time>2022-03-28T20:20:07Z</time>
      </trkpt>
      <trkpt lat="44.09671" lon="3.53968">
        <ele>1333</ele>
        <time>2022-03-28T20:20:14Z</time>
      </trkpt>
      <trkpt lat="44.09658" lon="3.53953">
        <ele>1333</ele>
        <time>2022-03-28T20:20:22Z</time>
      </trkpt>
      <trkpt lat="44.09589" lon="3.53816">
        <ele>1333</ele>
        <time>2022-03-28T20:21:23Z</time>
      </trkpt>
      <trkpt lat="44.09568" lon="3.53794">
        <ele>1333</ele>
        <time>2022-03-28T20:21:36Z</time>
      </trkpt>
      <trkpt lat="44.09533" lon="3.53762">
        <ele>1334</ele>
        <time>2022-03-28T20:21:57Z</time>
      </trkpt>
      <trkpt lat="44.09524" lon="3.53751">
        <ele>1335</ele>
        <time>2022-03-28T20:22:03Z</time>
      </trkpt>
      <trkpt lat="44.09519" lon="3.53738">
        <ele>1336</ele>
        <time>2022-03-28T20:22:08Z</time>
      </trkpt>
      <trkpt lat="44.09516" lon="3.53719">
        <ele>1336</ele>
        <time>2022-03-28T20:22:15Z</time>
      </trkpt>
      <trkpt lat="44.09509" lon="3.53692">
        <ele>1337</ele>
        <time>2022-03-28T20:22:25Z</time>
      </trkpt>
      <trkpt lat="44.09491" lon="3.53668">
        <ele>1340</ele>
        <time>2022-03-28T20:22:38Z</time>
      </trkpt>
      <trkpt lat="44.09461" lon="3.53615">
        <ele>1338</ele>
        <time>2022-03-28T20:23:02Z</time>
      </trkpt>
      <trkpt lat="44.09434" lon="3.53581">
        <ele>1339</ele>
        <time>2022-03-28T20:23:20Z</time>
      </trkpt>
      <trkpt lat="44.0942" lon="3.53554">
        <ele>1337</ele>
        <time>2022-03-28T20:23:32Z</time>
      </trkpt>
      <trkpt lat="44.0938" lon="3.53492">
        <ele>1337</ele>
        <time>2022-03-28T20:24:02Z</time>
      </trkpt>
      <trkpt lat="44.09368" lon="3.53466">
        <ele>1337</ele>
        <time>2022-03-28T20:24:13Z</time>
      </trkpt>
      <trkpt lat="44.09339" lon="3.53445">
        <ele>1341</ele>
        <time>2022-03-28T20:24:30Z</time>
      </trkpt>
      <trkpt lat="44.09333" lon="3.53436">
        <ele>1342</ele>
        <time>2022-03-28T20:24:34Z</time>
      </trkpt>
      <trkpt lat="44.09333" lon="3.53427">
        <ele>1341</ele>
        <time>2022-03-28T20:24:37Z</time>
      </trkpt>
      <trkpt lat="44.09338" lon="3.53418">
        <ele>1340</ele>
        <time>2022-03-28T20:24:41Z</time>
      </trkpt>
      <trkpt lat="44.09359" lon="3.53399">
        <ele>1338</ele>
        <time>2022-03-28T20:24:54Z</time>
      </trkpt>
      <trkpt lat="44.09385" lon="3.53327">
        <ele>1338</ele>
        <time>2022-03-28T20:25:23Z</time>
      </trkpt>
      <trkpt lat="44.09391" lon="3.53285">
        <ele>1337</ele>
        <time>2022-03-28T20:25:38Z</time>
      </trkpt>
      <trkpt lat="44.09393" lon="3.53262">
        <ele>1337</ele>
        <time>2022-03-28T20:25:47Z</time>
      </trkpt>
      <trkpt lat="44.09389" lon="3.5324">
        <ele>1337</ele>
        <time>2022-03-28T20:25:55Z</time>
      </trkpt>
      <trkpt lat="44.09375" lon="3.53215">
        <ele>1336</ele>
        <time>2022-03-28T20:26:06Z</time>
      </trkpt>
      <trkpt lat="44.09365" lon="3.53203">
        <ele>1337</ele>
        <time>2022-03-28T20:26:13Z</time>
      </trkpt>
      <trkpt lat="44.09336" lon="3.53176">
        <ele>1339</ele>
        <time>2022-03-28T20:26:30Z</time>
      </trkpt>
      <trkpt lat="44.09314" lon="3.53151">
        <ele>1339</ele>
        <time>2022-03-28T20:26:44Z</time>
      </trkpt>
      <trkpt lat="44.0929" lon="3.53116">
        <ele>1340</ele>
        <time>2022-03-28T20:27:02Z</time>
      </trkpt>
      <trkpt lat="44.09264" lon="3.5306">
        <ele>1341</ele>
        <time>2022-03-28T20:27:26Z</time>
      </trkpt>
      <trkpt lat="44.0924" lon="3.53026">
        <ele>1344</ele>
        <time>2022-03-28T20:27:43Z</time>
      </trkpt>
      <trkpt lat="44.09238" lon="3.53012">
        <ele>1344</ele>
        <time>2022-03-28T20:27:48Z</time>
      </trkpt>
      <trkpt lat="44.09243" lon="3.53001">
        <ele>1343</ele>
        <time>2022-03-28T20:27:53Z</time>
      </trkpt>
      <trkpt lat="44.09275" lon="3.52992">
        <ele>1339</ele>
        <time>2022-03-28T20:28:09Z</time>
      </trkpt>
      <trkpt lat="44.09303" lon="3.52977">
        <ele>1337</ele>
        <time>2022-03-28T20:28:24Z</time>
      </trkpt>
      <trkpt lat="44.09331" lon="3.52967">
        <ele>1335</ele>
        <time>2022-03-28T20:28:38Z</time>
      </trkpt>
      <trkpt lat="44.09393" lon="3.52958">
        <ele>1330</ele>
        <time>2022-03-28T20:29:10Z</time>
      </trkpt>
      <trkpt lat="44.09424" lon="3.52944">
        <ele>1329</ele>
        <time>2022-03-28T20:29:26Z</time>
      </trkpt>
      <trkpt lat="44.09442" lon="3.52933">
        <ele>1327</ele>
        <time>2022-03-28T20:29:36Z</time>
      </trkpt>
      <trkpt lat="44.09454" lon="3.52918">
        <ele>1327</ele>
        <time>2022-03-28T20:29:44Z</time>
      </trkpt>
      <trkpt lat="44.09463" lon="3.52899">
        <ele>1325</ele>
        <time>2022-03-28T20:29:52Z</time>
      </trkpt>
      <trkpt lat="44.09469" lon="3.52876">
        <ele>1323</ele>
        <time>2022-03-28T20:30:01Z</time>
      </trkpt>
      <trkpt lat="44.09469" lon="3.52866">
        <ele>1322</ele>
        <time>2022-03-28T20:30:04Z</time>
      </trkpt>
      <trkpt lat="44.09462" lon="3.52854">
        <ele>1323</ele>
        <time>2022-03-28T20:30:10Z</time>
      </trkpt>
      <trkpt lat="44.09455" lon="3.52829">
        <ele>1323</ele>
        <time>2022-03-28T20:30:20Z</time>
      </trkpt>
      <trkpt lat="44.09448" lon="3.52814">
        <ele>1322</ele>
        <time>2022-03-28T20:30:26Z</time>
      </trkpt>
      <trkpt lat="44.09398" lon="3.52752">
        <ele>1327</ele>
        <time>2022-03-28T20:31:00Z</time>
      </trkpt>
      <trkpt lat="44.09378" lon="3.5271">
        <ele>1324</ele>
        <time>2022-03-28T20:31:18Z</time>
      </trkpt>
      <trkpt lat="44.09367" lon="3.52681">
        <ele>1322</ele>
        <time>2022-03-28T20:31:29Z</time>
      </trkpt>
      <trkpt lat="44.09363" lon="3.52651">
        <ele>1318</ele>
        <time>2022-03-28T20:31:40Z</time>
      </trkpt>
      <trkpt lat="44.09356" lon="3.52625">
        <ele>1316</ele>
        <time>2022-03-28T20:31:50Z</time>
      </trkpt>
      <trkpt lat="44.09347" lon="3.52609">
        <ele>1316</ele>
        <time>2022-03-28T20:31:58Z</time>
      </trkpt>
      <trkpt lat="44.09325" lon="3.52585">
        <ele>1318</ele>
        <time>2022-03-28T20:32:12Z</time>
      </trkpt>
      <trkpt lat="44.0931" lon="3.52564">
        <ele>1318</ele>
        <time>2022-03-28T20:32:22Z</time>
      </trkpt>
      <trkpt lat="44.09301" lon="3.52542">
        <ele>1318</ele>
        <time>2022-03-28T20:32:31Z</time>
      </trkpt>
      <trkpt lat="44.09282" lon="3.52469">
        <ele>1315</ele>
        <time>2022-03-28T20:32:59Z</time>
      </trkpt>
      <trkpt lat="44.09282" lon="3.52461">
        <ele>1315</ele>
        <time>2022-03-28T20:33:02Z</time>
      </trkpt>
      <trkpt lat="44.09286" lon="3.52454">
        <ele>1314</ele>
        <time>2022-03-28T20:33:05Z</time>
      </trkpt>
      <trkpt lat="44.09301" lon="3.52436">
        <ele>1311</ele>
        <time>2022-03-28T20:33:15Z</time>
      </trkpt>
      <trkpt lat="44.09322" lon="3.52421">
        <ele>1307</ele>
        <time>2022-03-28T20:33:27Z</time>
      </trkpt>
      <trkpt lat="44.09347" lon="3.524">
        <ele>1302</ele>
        <time>2022-03-28T20:33:42Z</time>
      </trkpt>
      <trkpt lat="44.09361" lon="3.52379">
        <ele>1300</ele>
        <time>2022-03-28T20:33:52Z</time>
      </trkpt>
      <trkpt lat="44.09362" lon="3.52369">
        <ele>1299</ele>
        <time>2022-03-28T20:33:56Z</time>
      </trkpt>
      <trkpt lat="44.09358" lon="3.5236">
        <ele>1299</ele>
        <time>2022-03-28T20:34:00Z</time>
      </trkpt>
      <trkpt lat="44.09345" lon="3.52346">
        <ele>1299</ele>
        <time>2022-03-28T20:34:08Z</time>
      </trkpt>
      <trkpt lat="44.09331" lon="3.52339">
        <ele>1300</ele>
        <time>2022-03-28T20:34:15Z</time>
      </trkpt>
      <trkpt lat="44.09288" lon="3.52327">
        <ele>1302</ele>
        <time>2022-03-28T20:34:37Z</time>
      </trkpt>
      <trkpt lat="44.09211" lon="3.52298">
        <ele>1310</ele>
        <time>2022-03-28T20:35:17Z</time>
      </trkpt>
      <trkpt lat="44.092" lon="3.52291">
        <ele>1312</ele>
        <time>2022-03-28T20:35:23Z</time>
      </trkpt>
      <trkpt lat="44.09197" lon="3.52272">
        <ele>1311</ele>
        <time>2022-03-28T20:35:30Z</time>
      </trkpt>
      <trkpt lat="44.09197" lon="3.52222">
        <ele>1306</ele>
        <time>2022-03-28T20:35:48Z</time>
      </trkpt>
      <trkpt lat="44.09194" lon="3.52159">
        <ele>1303</ele>
        <time>2022-03-28T20:36:11Z</time>
      </trkpt>
      <trkpt lat="44.09185" lon="3.52119">
        <ele>1301</ele>
        <time>2022-03-28T20:36:26Z</time>
      </trkpt>
      <trkpt lat="44.09166" lon="3.52066">
        <ele>1301</ele>
        <time>2022-03-28T20:36:47Z</time>
      </trkpt>
      <trkpt lat="44.09142" lon="3.52022">
        <ele>1297</ele>
        <time>2022-03-28T20:37:07Z</time>
      </trkpt>
      <trkpt lat="44.09122" lon="3.51991">
        <ele>1294</ele>
        <time>2022-03-28T20:37:22Z</time>
      </trkpt>
      <trkpt lat="44.09099" lon="3.51983">
        <ele>1295</ele>
        <time>2022-03-28T20:37:34Z</time>
      </trkpt>
      <trkpt lat="44.09008" lon="3.51982">
        <ele>1296</ele>
        <time>2022-03-28T20:38:19Z</time>
      </trkpt>
      <trkpt lat="44.08952" lon="3.51978">
        <ele>1294</ele>
        <time>2022-03-28T20:38:47Z</time>
      </trkpt>
      <trkpt lat="44.08895" lon="3.5197">
        <ele>1292</ele>
        <time>2022-03-28T20:39:16Z</time>
      </trkpt>
      <trkpt lat="44.08874" lon="3.51972">
        <ele>1291</ele>
        <time>2022-03-28T20:39:27Z</time>
      </trkpt>
      <trkpt lat="44.08872" lon="3.51963">
        <ele>1291</ele>
        <time>2022-03-28T20:39:30Z</time>
      </trkpt>
      <trkpt lat="44.08841" lon="3.51926">
        <ele>1293</ele>
        <time>2022-03-28T20:39:50Z</time>
      </trkpt>
      <trkpt lat="44.08828" lon="3.5192">
        <ele>1294</ele>
        <time>2022-03-28T20:39:57Z</time>
      </trkpt>
      <trkpt lat="44.08799" lon="3.51913">
        <ele>1296</ele>
        <time>2022-03-28T20:40:12Z</time>
      </trkpt>
      <trkpt lat="44.0877" lon="3.51924">
        <ele>1296</ele>
        <time>2022-03-28T20:40:27Z</time>
      </trkpt>
      <trkpt lat="44.08709" lon="3.51925">
        <ele>1296</ele>
        <time>2022-03-28T20:40:58Z</time>
      </trkpt>
      <trkpt lat="44.08647" lon="3.51916">
        <ele>1299</ele>
        <time>2022-03-28T20:41:29Z</time>
      </trkpt>
      <trkpt lat="44.08588" lon="3.51919">
        <ele>1301</ele>
        <time>2022-03-28T20:41:58Z</time>
      </trkpt>
      <trkpt lat="44.08552" lon="3.51932">
        <ele>1299</ele>
        <time>2022-03-28T20:42:17Z</time>
      </trkpt>
      <trkpt lat="44.08479" lon="3.51947">
        <ele>1299</ele>
        <time>2022-03-28T20:42:54Z</time>
      </trkpt>
      <trkpt lat="44.08434" lon="3.51968">
        <ele>1296</ele>
        <time>2022-03-28T20:43:18Z</time>
      </trkpt>
      <trkpt lat="44.0837" lon="3.51986">
        <ele>1297</ele>
        <time>2022-03-28T20:43:50Z</time>
      </trkpt>
      <trkpt lat="44.08351" lon="3.51997">
        <ele>1296</ele>
        <time>2022-03-28T20:44:01Z</time>
      </trkpt>
      <trkpt lat="44.08277" lon="3.52007">
        <ele>1296</ele>
        <time>2022-03-28T20:44:38Z</time>
      </trkpt>
      <trkpt lat="44.08212" lon="3.52021">
        <ele>1288</ele>
        <time>2022-03-28T20:45:11Z</time>
      </trkpt>
      <trkpt lat="44.08182" lon="3.52018">
        <ele>1286</ele>
        <time>2022-03-28T20:45:26Z</time>
      </trkpt>
      <trkpt lat="44.08137" lon="3.52017">
        <ele>1278</ele>
        <time>2022-03-28T20:45:48Z</time>
      </trkpt>
      <trkpt lat="44.08118" lon="3.52001">
        <ele>1277</ele>
        <time>2022-03-28T20:45:59Z</time>
      </trkpt>
      <trkpt lat="44.08103" lon="3.51992">
        <ele>1274</ele>
        <time>2022-03-28T20:46:08Z</time>
      </trkpt>
      <trkpt lat="44.08096" lon="3.51989">
        <ele>1273</ele>
        <time>2022-03-28T20:46:11Z</time>
      </trkpt>
      <trkpt lat="44.08066" lon="3.51989">
        <ele>1268</ele>
        <time>2022-03-28T20:46:26Z</time>
      </trkpt>
      <trkpt lat="44.08013" lon="3.52006">
        <ele>1264</ele>
        <time>2022-03-28T20:46:53Z</time>
      </trkpt>
      <trkpt lat="44.07933" lon="3.52052">
        <ele>1260</ele>
        <time>2022-03-28T20:47:37Z</time>
      </trkpt>
      <trkpt lat="44.07924" lon="3.52061">
        <ele>1260</ele>
        <time>2022-03-28T20:47:42Z</time>
      </trkpt>
      <trkpt lat="44.07921" lon="3.52074">
        <ele>1260</ele>
        <time>2022-03-28T20:47:47Z</time>
      </trkpt>
      <trkpt lat="44.07915" lon="3.5208">
        <ele>1260</ele>
        <time>2022-03-28T20:47:51Z</time>
      </trkpt>
      <trkpt lat="44.07895" lon="3.52094">
        <ele>1255</ele>
        <time>2022-03-28T20:48:02Z</time>
      </trkpt>
      <trkpt lat="44.07874" lon="3.52128">
        <ele>1249</ele>
        <time>2022-03-28T20:48:18Z</time>
      </trkpt>
      <trkpt lat="44.07853" lon="3.5215">
        <ele>1244</ele>
        <time>2022-03-28T20:48:31Z</time>
      </trkpt>
      <trkpt lat="44.07829" lon="3.52163">
        <ele>1240</ele>
        <time>2022-03-28T20:48:44Z</time>
      </trkpt>
      <trkpt lat="44.07808" lon="3.52167">
        <ele>1235</ele>
        <time>2022-03-28T20:48:55Z</time>
      </trkpt>
      <trkpt lat="44.07789" lon="3.52178">
        <ele>1231</ele>
        <time>2022-03-28T20:49:05Z</time>
      </trkpt>
      <trkpt lat="44.0778" lon="3.52187">
        <ele>1229</ele>
        <time>2022-03-28T20:49:11Z</time>
      </trkpt>
      <trkpt lat="44.0776" lon="3.52213">
        <ele>1226</ele>
        <time>2022-03-28T20:49:24Z</time>
      </trkpt>
      <trkpt lat="44.07751" lon="3.52221">
        <ele>1225</ele>
        <time>2022-03-28T20:49:30Z</time>
      </trkpt>
      <trkpt lat="44.07746" lon="3.52218">
        <ele>1224</ele>
        <time>2022-03-28T20:49:32Z</time>
      </trkpt>
      <trkpt lat="44.07726" lon="3.52185">
        <ele>1217</ele>
        <time>2022-03-28T20:49:48Z</time>
      </trkpt>
      <trkpt lat="44.07718" lon="3.52174">
        <ele>1214</ele>
        <time>2022-03-28T20:49:54Z</time>
      </trkpt>
      <trkpt lat="44.07704" lon="3.52162">
        <ele>1209</ele>
        <time>2022-03-28T20:50:02Z</time>
      </trkpt>
      <trkpt lat="44.07697" lon="3.52151">
        <ele>1207</ele>
        <time>2022-03-28T20:50:07Z</time>
      </trkpt>
      <trkpt lat="44.07694" lon="3.52145">
        <ele>1205</ele>
        <time>2022-03-28T20:50:10Z</time>
      </trkpt>
      <trkpt lat="44.07689" lon="3.52139">
        <ele>1203</ele>
        <time>2022-03-28T20:50:13Z</time>
      </trkpt>
      <trkpt lat="44.07638" lon="3.52115">
        <ele>1188</ele>
        <time>2022-03-28T20:50:40Z</time>
      </trkpt>
      <trkpt lat="44.07623" lon="3.52117">
        <ele>1185</ele>
        <time>2022-03-28T20:50:48Z</time>
      </trkpt>
      <trkpt lat="44.07597" lon="3.52109">
        <ele>1179</ele>
        <time>2022-03-28T20:51:01Z</time>
      </trkpt>
      <trkpt lat="44.07586" lon="3.52108">
        <ele>1176</ele>
        <time>2022-03-28T20:51:06Z</time>
      </trkpt>
      <trkpt lat="44.07576" lon="3.52103">
        <ele>1174</ele>
        <time>2022-03-28T20:51:12Z</time>
      </trkpt>
      <trkpt lat="44.07569" lon="3.52092">
        <ele>1171</ele>
        <time>2022-03-28T20:51:17Z</time>
      </trkpt>
      <trkpt lat="44.07568" lon="3.52085">
        <ele>1170</ele>
        <time>2022-03-28T20:51:20Z</time>
      </trkpt>
      <trkpt lat="44.07569" lon="3.52069">
        <ele>1168</ele>
        <time>2022-03-28T20:51:25Z</time>
      </trkpt>
      <trkpt lat="44.07562" lon="3.52049">
        <ele>1164</ele>
        <time>2022-03-28T20:51:33Z</time>
      </trkpt>
      <trkpt lat="44.07522" lon="3.51979">
        <ele>1150</ele>
        <time>2022-03-28T20:52:05Z</time>
      </trkpt>
      <trkpt lat="44.07508" lon="3.51951">
        <ele>1146</ele>
        <time>2022-03-28T20:52:18Z</time>
      </trkpt>
      <trkpt lat="44.0751" lon="3.51941">
        <ele>1146</ele>
        <time>2022-03-28T20:52:21Z</time>
      </trkpt>
      <trkpt lat="44.07508" lon="3.51929">
        <ele>1144</ele>
        <time>2022-03-28T20:52:26Z</time>
      </trkpt>
      <trkpt lat="44.07501" lon="3.51913">
        <ele>1142</ele>
        <time>2022-03-28T20:52:33Z</time>
      </trkpt>
      <trkpt lat="44.07481" lon="3.51879">
        <ele>1141</ele>
        <time>2022-03-28T20:52:48Z</time>
      </trkpt>
      <trkpt lat="44.07463" lon="3.51824">
        <ele>1138</ele>
        <time>2022-03-28T20:53:10Z</time>
      </trkpt>
      <trkpt lat="44.07452" lon="3.51805">
        <ele>1136</ele>
        <time>2022-03-28T20:53:19Z</time>
      </trkpt>
      <trkpt lat="44.07444" lon="3.51789">
        <ele>1135</ele>
        <time>2022-03-28T20:53:26Z</time>
      </trkpt>
      <trkpt lat="44.0743" lon="3.51767">
        <ele>1133</ele>
        <time>2022-03-28T20:53:37Z</time>
      </trkpt>
      <trkpt lat="44.07426" lon="3.51752">
        <ele>1132</ele>
        <time>2022-03-28T20:53:42Z</time>
      </trkpt>
      <trkpt lat="44.07425" lon="3.5171">
        <ele>1129</ele>
        <time>2022-03-28T20:53:57Z</time>
      </trkpt>
      <trkpt lat="44.07423" lon="3.51699">
        <ele>1128</ele>
        <time>2022-03-28T20:54:01Z</time>
      </trkpt>
      <trkpt lat="44.07416" lon="3.51687">
        <ele>1127</ele>
        <time>2022-03-28T20:54:07Z</time>
      </trkpt>
      <trkpt lat="44.07405" lon="3.51677">
        <ele>1126</ele>
        <time>2022-03-28T20:54:14Z</time>
      </trkpt>
      <trkpt lat="44.07362" lon="3.51655">
        <ele>1122</ele>
        <time>2022-03-28T20:54:37Z</time>
      </trkpt>
      <trkpt lat="44.07345" lon="3.5165">
        <ele>1121</ele>
        <time>2022-03-28T20:54:45Z</time>
      </trkpt>
      <trkpt lat="44.07321" lon="3.51647">
        <ele>1119</ele>
        <time>2022-03-28T20:54:57Z</time>
      </trkpt>
      <trkpt lat="44.07308" lon="3.51647">
        <ele>1117</ele>
        <time>2022-03-28T20:55:04Z</time>
      </trkpt>
      <trkpt lat="44.07301" lon="3.5165">
        <ele>1116</ele>
        <time>2022-03-28T20:55:07Z</time>
      </trkpt>
      <trkpt lat="44.07296" lon="3.51655">
        <ele>1116</ele>
        <time>2022-03-28T20:55:11Z</time>
      </trkpt>
      <trkpt lat="44.07289" lon="3.51666">
        <ele>1116</ele>
        <time>2022-03-28T20:55:16Z</time>
      </trkpt>
      <trkpt lat="44.07284" lon="3.51685">
        <ele>1115</ele>
        <time>2022-03-28T20:55:23Z</time>
      </trkpt>
      <trkpt lat="44.07285" lon="3.51699">
        <ele>1115</ele>
        <time>2022-03-28T20:55:28Z</time>
      </trkpt>
      <trkpt lat="44.07291" lon="3.51721">
        <ele>1116</ele>
        <time>2022-03-28T20:55:37Z</time>
      </trkpt>
      <trkpt lat="44.07314" lon="3.51754">
        <ele>1119</ele>
        <time>2022-03-28T20:55:53Z</time>
      </trkpt>
      <trkpt lat="44.07324" lon="3.51772">
        <ele>1120</ele>
        <time>2022-03-28T20:56:01Z</time>
      </trkpt>
      <trkpt lat="44.07327" lon="3.51781">
        <ele>1120</ele>
        <time>2022-03-28T20:56:05Z</time>
      </trkpt>
      <trkpt lat="44.07324" lon="3.5179">
        <ele>1119</ele>
        <time>2022-03-28T20:56:08Z</time>
      </trkpt>
      <trkpt lat="44.07321" lon="3.51778">
        <ele>1119</ele>
        <time>2022-03-28T20:56:13Z</time>
      </trkpt>
      <trkpt lat="44.07316" lon="3.51767">
        <ele>1119</ele>
        <time>2022-03-28T20:56:18Z</time>
      </trkpt>
      <trkpt lat="44.0731" lon="3.51758">
        <ele>1118</ele>
        <time>2022-03-28T20:56:22Z</time>
      </trkpt>
      <trkpt lat="44.07289" lon="3.51736">
        <ele>1115</ele>
        <time>2022-03-28T20:56:35Z</time>
      </trkpt>
      <trkpt lat="44.07283" lon="3.51728">
        <ele>1114</ele>
        <time>2022-03-28T20:56:39Z</time>
      </trkpt>
      <trkpt lat="44.07272" lon="3.51699">
        <ele>1113</ele>
        <time>2022-03-28T20:56:51Z</time>
      </trkpt>
      <trkpt lat="44.07266" lon="3.51672">
        <ele>1113</ele>
        <time>2022-03-28T20:57:01Z</time>
      </trkpt>
      <trkpt lat="44.07264" lon="3.51684">
        <ele>1112</ele>
        <time>2022-03-28T20:57:06Z</time>
      </trkpt>
      <trkpt lat="44.07269" lon="3.51714">
        <ele>1112</ele>
        <time>2022-03-28T20:57:17Z</time>
      </trkpt>
      <trkpt lat="44.07286" lon="3.51755">
        <ele>1114</ele>
        <time>2022-03-28T20:57:34Z</time>
      </trkpt>
      <trkpt lat="44.0729" lon="3.51777">
        <ele>1114</ele>
        <time>2022-03-28T20:57:42Z</time>
      </trkpt>
      <trkpt lat="44.07291" lon="3.51803">
        <ele>1113</ele>
        <time>2022-03-28T20:57:51Z</time>
      </trkpt>
      <trkpt lat="44.07288" lon="3.51822">
        <ele>1111</ele>
        <time>2022-03-28T20:57:58Z</time>
      </trkpt>
      <trkpt lat="44.07272" lon="3.51868">
        <ele>1108</ele>
        <time>2022-03-28T20:58:17Z</time>
      </trkpt>
      <trkpt lat="44.07267" lon="3.51877">
        <ele>1107</ele>
        <time>2022-03-28T20:58:21Z</time>
      </trkpt>
      <trkpt lat="44.07244" lon="3.51905">
        <ele>1103</ele>
        <time>2022-03-28T20:58:36Z</time>
      </trkpt>
      <trkpt lat="44.07236" lon="3.51912">
        <ele>1103</ele>
        <time>2022-03-28T20:58:41Z</time>
      </trkpt>
      <trkpt lat="44.07222" lon="3.51934">
        <ele>1104</ele>
        <time>2022-03-28T20:58:51Z</time>
      </trkpt>
      <trkpt lat="44.07214" lon="3.51939">
        <ele>1104</ele>
        <time>2022-03-28T20:58:56Z</time>
      </trkpt>
      <trkpt lat="44.0719" lon="3.51947">
        <ele>1105</ele>
        <time>2022-03-28T20:59:08Z</time>
      </trkpt>
      <trkpt lat="44.07179" lon="3.51947">
        <ele>1104</ele>
        <time>2022-03-28T20:59:14Z</time>
      </trkpt>
      <trkpt lat="44.07164" lon="3.51939">
        <ele>1104</ele>
        <time>2022-03-28T20:59:22Z</time>
      </trkpt>
      <trkpt lat="44.07152" lon="3.51921">
        <ele>1105</ele>
        <time>2022-03-28T20:59:31Z</time>
      </trkpt>
      <trkpt lat="44.0714" lon="3.51886">
        <ele>1105</ele>
        <time>2022-03-28T20:59:45Z</time>
      </trkpt>
      <trkpt lat="44.07126" lon="3.51853">
        <ele>1104</ele>
        <time>2022-03-28T20:59:58Z</time>
      </trkpt>
      <trkpt lat="44.07101" lon="3.51822">
        <ele>1104</ele>
        <time>2022-03-28T21:00:15Z</time>
      </trkpt>
      <trkpt lat="44.07089" lon="3.51817">
        <ele>1105</ele>
        <time>2022-03-28T21:00:21Z</time>
      </trkpt>
      <trkpt lat="44.07036" lon="3.51814">
        <ele>1114</ele>
        <time>2022-03-28T21:00:48Z</time>
      </trkpt>
      <trkpt lat="44.07028" lon="3.51808">
        <ele>1115</ele>
        <time>2022-03-28T21:00:52Z</time>
      </trkpt>
      <trkpt lat="44.07021" lon="3.5179">
        <ele>1115</ele>
        <time>2022-03-28T21:01:00Z</time>
      </trkpt>
      <trkpt lat="44.07021" lon="3.5178">
        <ele>1114</ele>
        <time>2022-03-28T21:01:03Z</time>
      </trkpt>
      <trkpt lat="44.07025" lon="3.51746">
        <ele>1111</ele>
        <time>2022-03-28T21:01:16Z</time>
      </trkpt>
      <trkpt lat="44.07024" lon="3.51724">
        <ele>1111</ele>
        <time>2022-03-28T21:01:24Z</time>
      </trkpt>
      <trkpt lat="44.0699" lon="3.51535">
        <ele>1111</ele>
        <time>2022-03-28T21:02:34Z</time>
      </trkpt>
      <trkpt lat="44.06982" lon="3.51508">
        <ele>1110</ele>
        <time>2022-03-28T21:02:44Z</time>
      </trkpt>
      <trkpt lat="44.06975" lon="3.51495">
        <ele>1110</ele>
        <time>2022-03-28T21:02:50Z</time>
      </trkpt>
      <trkpt lat="44.06964" lon="3.51484">
        <ele>1111</ele>
        <time>2022-03-28T21:02:57Z</time>
      </trkpt>
      <trkpt lat="44.06937" lon="3.5148">
        <ele>1115</ele>
        <time>2022-03-28T21:03:10Z</time>
      </trkpt>
      <trkpt lat="44.06863" lon="3.51494">
        <ele>1128</ele>
        <time>2022-03-28T21:03:48Z</time>
      </trkpt>
      <trkpt lat="44.06843" lon="3.51492">
        <ele>1131</ele>
        <time>2022-03-28T21:03:58Z</time>
      </trkpt>
      <trkpt lat="44.06827" lon="3.51484">
        <ele>1130</ele>
        <time>2022-03-28T21:04:06Z</time>
      </trkpt>
      <trkpt lat="44.06793" lon="3.51459">
        <ele>1124</ele>
        <time>2022-03-28T21:04:26Z</time>
      </trkpt>
      <trkpt lat="44.06784" lon="3.51458">
        <ele>1124</ele>
        <time>2022-03-28T21:04:30Z</time>
      </trkpt>
      <trkpt lat="44.06775" lon="3.51463">
        <ele>1125</ele>
        <time>2022-03-28T21:04:35Z</time>
      </trkpt>
      <trkpt lat="44.06756" lon="3.51484">
        <ele>1130</ele>
        <time>2022-03-28T21:04:47Z</time>
      </trkpt>
      <trkpt lat="44.06717" lon="3.51532">
        <ele>1136</ele>
        <time>2022-03-28T21:05:13Z</time>
      </trkpt>
      <trkpt lat="44.06679" lon="3.51559">
        <ele>1136</ele>
        <time>2022-03-28T21:05:35Z</time>
      </trkpt>
      <trkpt lat="44.06651" lon="3.51592">
        <ele>1138</ele>
        <time>2022-03-28T21:05:53Z</time>
      </trkpt>
      <trkpt lat="44.06628" lon="3.51627">
        <ele>1139</ele>
        <time>2022-03-28T21:06:10Z</time>
      </trkpt>
      <trkpt lat="44.06614" lon="3.51668">
        <ele>1140</ele>
        <time>2022-03-28T21:06:26Z</time>
      </trkpt>
      <trkpt lat="44.06613" lon="3.51707">
        <ele>1144</ele>
        <time>2022-03-28T21:06:40Z</time>
      </trkpt>
      <trkpt lat="44.06617" lon="3.5174">
        <ele>1149</ele>
        <time>2022-03-28T21:06:52Z</time>
      </trkpt>
      <trkpt lat="44.06628" lon="3.51783">
        <ele>1155</ele>
        <time>2022-03-28T21:07:09Z</time>
      </trkpt>
      <trkpt lat="44.06631" lon="3.51809">
        <ele>1158</ele>
        <time>2022-03-28T21:07:18Z</time>
      </trkpt>
      <trkpt lat="44.0663" lon="3.51831">
        <ele>1159</ele>
        <time>2022-03-28T21:07:26Z</time>
      </trkpt>
      <trkpt lat="44.0662" lon="3.51863">
        <ele>1161</ele>
        <time>2022-03-28T21:07:39Z</time>
      </trkpt>
      <trkpt lat="44.06597" lon="3.519">
        <ele>1162</ele>
        <time>2022-03-28T21:07:56Z</time>
      </trkpt>
      <trkpt lat="44.06572" lon="3.5192">
        <ele>1164</ele>
        <time>2022-03-28T21:08:11Z</time>
      </trkpt>
      <trkpt lat="44.0655" lon="3.51925">
        <ele>1165</ele>
        <time>2022-03-28T21:08:22Z</time>
      </trkpt>
      <trkpt lat="44.06529" lon="3.51926">
        <ele>1166</ele>
        <time>2022-03-28T21:08:32Z</time>
      </trkpt>
      <trkpt lat="44.06505" lon="3.51913">
        <ele>1163</ele>
        <time>2022-03-28T21:08:45Z</time>
      </trkpt>
      <trkpt lat="44.0648" lon="3.51893">
        <ele>1164</ele>
        <time>2022-03-28T21:09:00Z</time>
      </trkpt>
      <trkpt lat="44.06449" lon="3.51847">
        <ele>1164</ele>
        <time>2022-03-28T21:09:22Z</time>
      </trkpt>
      <trkpt lat="44.06406" lon="3.51763">
        <ele>1161</ele>
        <time>2022-03-28T21:09:59Z</time>
      </trkpt>
      <trkpt lat="44.06378" lon="3.51732">
        <ele>1163</ele>
        <time>2022-03-28T21:10:17Z</time>
      </trkpt>
      <trkpt lat="44.06339" lon="3.51671">
        <ele>1161</ele>
        <time>2022-03-28T21:10:47Z</time>
      </trkpt>
      <trkpt lat="44.06324" lon="3.51654">
        <ele>1160</ele>
        <time>2022-03-28T21:10:56Z</time>
      </trkpt>
      <trkpt lat="44.06304" lon="3.51647">
        <ele>1159</ele>
        <time>2022-03-28T21:11:07Z</time>
      </trkpt>
      <trkpt lat="44.0629" lon="3.51653">
        <ele>1161</ele>
        <time>2022-03-28T21:11:14Z</time>
      </trkpt>
      <trkpt lat="44.06265" lon="3.51677">
        <ele>1166</ele>
        <time>2022-03-28T21:11:29Z</time>
      </trkpt>
      <trkpt lat="44.06244" lon="3.51708">
        <ele>1172</ele>
        <time>2022-03-28T21:11:45Z</time>
      </trkpt>
      <trkpt lat="44.0622" lon="3.5175">
        <ele>1176</ele>
        <time>2022-03-28T21:12:04Z</time>
      </trkpt>
      <trkpt lat="44.06191" lon="3.51822">
        <ele>1178</ele>
        <time>2022-03-28T21:12:34Z</time>
      </trkpt>
      <trkpt lat="44.06189" lon="3.51838">
        <ele>1179</ele>
        <time>2022-03-28T21:12:39Z</time>
      </trkpt>
      <trkpt lat="44.06191" lon="3.51869">
        <ele>1182</ele>
        <time>2022-03-28T21:12:51Z</time>
      </trkpt>
      <trkpt lat="44.06191" lon="3.51884">
        <ele>1184</ele>
        <time>2022-03-28T21:12:56Z</time>
      </trkpt>
      <trkpt lat="44.06185" lon="3.51902">
        <ele>1185</ele>
        <time>2022-03-28T21:13:03Z</time>
      </trkpt>
      <trkpt lat="44.06167" lon="3.51916">
        <ele>1184</ele>
        <time>2022-03-28T21:13:13Z</time>
      </trkpt>
      <trkpt lat="44.06103" lon="3.51942">
        <ele>1190</ele>
        <time>2022-03-28T21:13:47Z</time>
      </trkpt>
      <trkpt lat="44.06065" lon="3.51953">
        <ele>1193</ele>
        <time>2022-03-28T21:14:06Z</time>
      </trkpt>
      <trkpt lat="44.0604" lon="3.51954">
        <ele>1194</ele>
        <time>2022-03-28T21:14:19Z</time>
      </trkpt>
      <trkpt lat="44.05992" lon="3.51928">
        <ele>1192</ele>
        <time>2022-03-28T21:14:44Z</time>
      </trkpt>
      <trkpt lat="44.05934" lon="3.5192">
        <ele>1195</ele>
        <time>2022-03-28T21:15:14Z</time>
      </trkpt>
      <trkpt lat="44.05928" lon="3.51901">
        <ele>1196</ele>
        <time>2022-03-28T21:15:21Z</time>
      </trkpt>
      <trkpt lat="44.05928" lon="3.5188">
        <ele>1197</ele>
        <time>2022-03-28T21:15:29Z</time>
      </trkpt>
      <trkpt lat="44.0597" lon="3.51856">
        <ele>1194</ele>
        <time>2022-03-28T21:15:51Z</time>
      </trkpt>
      <trkpt lat="44.05997" lon="3.51831">
        <ele>1192</ele>
        <time>2022-03-28T21:16:08Z</time>
      </trkpt>
      <trkpt lat="44.06021" lon="3.5179">
        <ele>1191</ele>
        <time>2022-03-28T21:16:27Z</time>
      </trkpt>
      <trkpt lat="44.06023" lon="3.51726">
        <ele>1196</ele>
        <time>2022-03-28T21:16:50Z</time>
      </trkpt>
      <trkpt lat="44.06003" lon="3.51668">
        <ele>1201</ele>
        <time>2022-03-28T21:17:13Z</time>
      </trkpt>
      <trkpt lat="44.05955" lon="3.51595">
        <ele>1207</ele>
        <time>2022-03-28T21:17:48Z</time>
      </trkpt>
      <trkpt lat="44.05917" lon="3.51559">
        <ele>1212</ele>
        <time>2022-03-28T21:18:11Z</time>
      </trkpt>
      <trkpt lat="44.05853" lon="3.51516">
        <ele>1213</ele>
        <time>2022-03-28T21:18:47Z</time>
      </trkpt>
      <trkpt lat="44.05832" lon="3.51518">
        <ele>1214</ele>
        <time>2022-03-28T21:18:58Z</time>
      </trkpt>
      <trkpt lat="44.05803" lon="3.51516">
        <ele>1215</ele>
        <time>2022-03-28T21:19:12Z</time>
      </trkpt>
      <trkpt lat="44.05762" lon="3.51494">
        <ele>1215</ele>
        <time>2022-03-28T21:19:34Z</time>
      </trkpt>
      <trkpt lat="44.05649" lon="3.51453">
        <ele>1222</ele>
        <time>2022-03-28T21:20:32Z</time>
      </trkpt>
      <trkpt lat="44.05593" lon="3.51458">
        <ele>1221</ele>
        <time>2022-03-28T21:21:01Z</time>
      </trkpt>
      <trkpt lat="44.05505" lon="3.5147">
        <ele>1222</ele>
        <time>2022-03-28T21:21:45Z</time>
      </trkpt>
      <trkpt lat="44.05481" lon="3.5148">
        <ele>1222</ele>
        <time>2022-03-28T21:21:57Z</time>
      </trkpt>
      <trkpt lat="44.05447" lon="3.51522">
        <ele>1224</ele>
        <time>2022-03-28T21:22:20Z</time>
      </trkpt>
      <trkpt lat="44.05423" lon="3.51559">
        <ele>1224</ele>
        <time>2022-03-28T21:22:38Z</time>
      </trkpt>
      <trkpt lat="44.05404" lon="3.51626">
        <ele>1226</ele>
        <time>2022-03-28T21:23:04Z</time>
      </trkpt>
      <trkpt lat="44.05387" lon="3.51644">
        <ele>1227</ele>
        <time>2022-03-28T21:23:15Z</time>
      </trkpt>
      <trkpt lat="44.05347" lon="3.51646">
        <ele>1227</ele>
        <time>2022-03-28T21:23:35Z</time>
      </trkpt>
      <trkpt lat="44.05306" lon="3.51653">
        <ele>1228</ele>
        <time>2022-03-28T21:23:55Z</time>
      </trkpt>
      <trkpt lat="44.05261" lon="3.51645">
        <ele>1229</ele>
        <time>2022-03-28T21:24:18Z</time>
      </trkpt>
      <trkpt lat="44.05237" lon="3.51647">
        <ele>1229</ele>
        <time>2022-03-28T21:24:30Z</time>
      </trkpt>
      <trkpt lat="44.05168" lon="3.51658">
        <ele>1226</ele>
        <time>2022-03-28T21:25:05Z</time>
      </trkpt>
      <trkpt lat="44.05159" lon="3.51647">
        <ele>1226</ele>
        <time>2022-03-28T21:25:11Z</time>
      </trkpt>
      <trkpt lat="44.05148" lon="3.51634">
        <ele>1228</ele>
        <time>2022-03-28T21:25:18Z</time>
      </trkpt>
      <trkpt lat="44.05143" lon="3.51628">
        <ele>1228</ele>
        <time>2022-03-28T21:25:21Z</time>
      </trkpt>
      <trkpt lat="44.05149" lon="3.5161">
        <ele>1230</ele>
        <time>2022-03-28T21:25:28Z</time>
      </trkpt>
      <trkpt lat="44.05199" lon="3.51545">
        <ele>1233</ele>
        <time>2022-03-28T21:26:03Z</time>
      </trkpt>
      <trkpt lat="44.0521" lon="3.51534">
        <ele>1233</ele>
        <time>2022-03-28T21:26:09Z</time>
      </trkpt>
      <trkpt lat="44.05234" lon="3.51519">
        <ele>1232</ele>
        <time>2022-03-28T21:26:23Z</time>
      </trkpt>
      <trkpt lat="44.05243" lon="3.51512">
        <ele>1231</ele>
        <time>2022-03-28T21:26:28Z</time>
      </trkpt>
      <trkpt lat="44.05247" lon="3.51501">
        <ele>1231</ele>
        <time>2022-03-28T21:26:32Z</time>
      </trkpt>
      <trkpt lat="44.05247" lon="3.51487">
        <ele>1232</ele>
        <time>2022-03-28T21:26:37Z</time>
      </trkpt>
      <trkpt lat="44.05239" lon="3.51469">
        <ele>1234</ele>
        <time>2022-03-28T21:26:45Z</time>
      </trkpt>
      <trkpt lat="44.05191" lon="3.51421">
        <ele>1242</ele>
        <time>2022-03-28T21:27:14Z</time>
      </trkpt>
      <trkpt lat="44.05165" lon="3.51383">
        <ele>1245</ele>
        <time>2022-03-28T21:27:33Z</time>
      </trkpt>
      <trkpt lat="44.05156" lon="3.51368">
        <ele>1247</ele>
        <time>2022-03-28T21:27:40Z</time>
      </trkpt>
      <trkpt lat="44.05113" lon="3.51252">
        <ele>1254</ele>
        <time>2022-03-28T21:28:27Z</time>
      </trkpt>
      <trkpt lat="44.05093" lon="3.51201">
        <ele>1257</ele>
        <time>2022-03-28T21:28:48Z</time>
      </trkpt>
      <trkpt lat="44.05087" lon="3.51177">
        <ele>1258</ele>
        <time>2022-03-28T21:28:57Z</time>
      </trkpt>
      <trkpt lat="44.05083" lon="3.51148">
        <ele>1259</ele>
        <time>2022-03-28T21:29:08Z</time>
      </trkpt>
      <trkpt lat="44.05079" lon="3.511">
        <ele>1260</ele>
        <time>2022-03-28T21:29:25Z</time>
      </trkpt>
      <trkpt lat="44.05076" lon="3.51089">
        <ele>1261</ele>
        <time>2022-03-28T21:29:30Z</time>
      </trkpt>
      <trkpt lat="44.05059" lon="3.51049">
        <ele>1265</ele>
        <time>2022-03-28T21:29:46Z</time>
      </trkpt>
      <trkpt lat="44.05042" lon="3.50994">
        <ele>1267</ele>
        <time>2022-03-28T21:30:08Z</time>
      </trkpt>
      <trkpt lat="44.05038" lon="3.50983">
        <ele>1267</ele>
        <time>2022-03-28T21:30:12Z</time>
      </trkpt>
      <trkpt lat="44.05025" lon="3.50963">
        <ele>1269</ele>
        <time>2022-03-28T21:30:22Z</time>
      </trkpt>
      <trkpt lat="44.05003" lon="3.50934">
        <ele>1272</ele>
        <time>2022-03-28T21:30:37Z</time>
      </trkpt>
      <trkpt lat="44.04986" lon="3.50908">
        <ele>1273</ele>
        <time>2022-03-28T21:30:50Z</time>
      </trkpt>
      <trkpt lat="44.04945" lon="3.50831">
        <ele>1277</ele>
        <time>2022-03-28T21:31:24Z</time>
      </trkpt>
      <trkpt lat="44.04922" lon="3.50824">
        <ele>1278</ele>
        <time>2022-03-28T21:31:36Z</time>
      </trkpt>
      <trkpt lat="44.04908" lon="3.50815">
        <ele>1278</ele>
        <time>2022-03-28T21:31:44Z</time>
      </trkpt>
      <trkpt lat="44.04882" lon="3.50813">
        <ele>1277</ele>
        <time>2022-03-28T21:31:57Z</time>
      </trkpt>
      <trkpt lat="44.04838" lon="3.50805">
        <ele>1276</ele>
        <time>2022-03-28T21:32:19Z</time>
      </trkpt>
      <trkpt lat="44.04817" lon="3.50793">
        <ele>1275</ele>
        <time>2022-03-28T21:32:30Z</time>
      </trkpt>
      <trkpt lat="44.04786" lon="3.50729">
        <ele>1276</ele>
        <time>2022-03-28T21:32:58Z</time>
      </trkpt>
      <trkpt lat="44.04776" lon="3.5069">
        <ele>1278</ele>
        <time>2022-03-28T21:33:13Z</time>
      </trkpt>
      <trkpt lat="44.04759" lon="3.50669">
        <ele>1278</ele>
        <time>2022-03-28T21:33:24Z</time>
      </trkpt>
      <trkpt lat="44.04746" lon="3.50668">
        <ele>1277</ele>
        <time>2022-03-28T21:33:31Z</time>
      </trkpt>
      <trkpt lat="44.04686" lon="3.50702">
        <ele>1276</ele>
        <time>2022-03-28T21:34:03Z</time>
      </trkpt>
      <trkpt lat="44.04656" lon="3.50713">
        <ele>1275</ele>
        <time>2022-03-28T21:34:19Z</time>
      </trkpt>
      <trkpt lat="44.04638" lon="3.50705">
        <ele>1276</ele>
        <time>2022-03-28T21:34:28Z</time>
      </trkpt>
      <trkpt lat="44.0462" lon="3.50707">
        <ele>1275</ele>
        <time>2022-03-28T21:34:37Z</time>
      </trkpt>
      <trkpt lat="44.04584" lon="3.50722">
        <ele>1274</ele>
        <time>2022-03-28T21:34:56Z</time>
      </trkpt>
      <trkpt lat="44.04555" lon="3.50742">
        <ele>1271</ele>
        <time>2022-03-28T21:35:12Z</time>
      </trkpt>
      <trkpt lat="44.04539" lon="3.50746">
        <ele>1270</ele>
        <time>2022-03-28T21:35:20Z</time>
      </trkpt>
      <trkpt lat="44.04475" lon="3.50758">
        <ele>1268</ele>
        <time>2022-03-28T21:35:53Z</time>
      </trkpt>
    </trkseg>
  </trk>
</gpx>